Time;durP1;ratioP1;P1;durP2;ratioP2;P2;SDS_P1;SDS_P2;PMS_P1;PMS_P2;Temp;Humidity;BMP_temperature;BMP_pressure;BME280_temperature;BME280_humidity;BME280_pressure;Samples;Min_cycle;Max_cycle;Signal;HPM_P1;HPM_P2
2024/04/21 00:00:23;;;;;;;1.38;0.95;;;;;;;23.80;39.37;101212.78;7390713;19;20018;-79
2024/04/21 00:02:49;;;;;;;5.38;1.63;;;;;;;24.02;39.09;101216.13;7393845;19;20031;-78
2024/04/21 00:05:15;;;;;;;4.63;1.35;;;;;;;24.26;38.40;101206.00;7390392;19;20041;-79
2024/04/21 00:07:42;;;;;;;1.75;0.68;;;;;;;24.74;38.20;101211.50;7391949;19;20022;-79
2024/04/21 00:10:09;;;;;;;2.50;0.70;;;;;;;25.00;38.08;101203.06;7392559;19;20018;-79
2024/04/21 00:12:35;;;;;;;0.50;0.50;;;;;;;24.95;37.71;101206.78;7390088;19;20521;-79
2024/04/21 00:15:05;;;;;;;1.05;1.05;;;;;;;24.72;37.83;101206.34;7395203;19;20019;-79
2024/04/21 00:17:31;;;;;;;1.30;1.02;;;;;;;24.81;37.96;101208.06;7392770;19;20019;-79
2024/04/21 00:19:57;;;;;;;0.45;0.45;;;;;;;25.00;37.48;101197.38;7391074;19;20014;-79
2024/04/21 00:22:23;;;;;;;1.25;1.15;;;;;;;24.83;37.65;101189.09;7389558;19;20430;-79
2024/04/21 00:24:49;;;;;;;2.58;0.63;;;;;;;24.52;38.27;101194.75;7391646;19;20017;-79
2024/04/21 00:27:15;;;;;;;0.45;0.45;;;;;;;24.04;38.71;101210.69;7395641;19;20039;-79
2024/04/21 00:29:41;;;;;;;1.67;0.52;;;;;;;23.56;39.06;101209.94;7389262;19;20018;-79
2024/04/21 00:32:07;;;;;;;0.40;0.40;;;;;;;24.07;38.61;101203.94;7387057;19;20512;-78
2024/04/21 00:34:33;;;;;;;0.55;0.55;;;;;;;23.93;38.94;101205.09;7387064;19;20026;-79
2024/04/21 00:36:59;;;;;;;0.70;0.70;;;;;;;23.65;39.26;101204.66;7391842;19;20417;-79
2024/04/21 00:39:25;;;;;;;1.85;0.77;;;;;;;24.09;38.88;101211.91;7388671;19;20322;-79
2024/04/21 00:41:51;;;;;;;0.80;0.65;;;;;;;23.84;38.83;101204.72;7391500;19;20088;-79
2024/04/21 00:44:17;;;;;;;1.05;1.05;;;;;;;24.34;38.59;101204.09;7390865;19;20014;-78
2024/04/21 00:46:44;;;;;;;0.68;0.68;;;;;;;24.24;38.54;101202.91;7391414;19;20022;-79
2024/04/21 00:49:11;;;;;;;0.73;0.65;;;;;;;24.45;38.23;101204.69;7392460;19;20035;-79
2024/04/21 00:51:37;;;;;;;1.10;1.02;;;;;;;24.57;38.56;101202.44;7387316;19;20034;-79
2024/04/21 00:54:04;;;;;;;1.55;0.73;;;;;;;24.42;38.50;101202.16;7387722;19;20485;-79
2024/04/21 00:56:31;;;;;;;0.40;0.40;;;;;;;24.46;38.21;101189.13;7386795;19;20018;-79
2024/04/21 00:58:59;;;;;;;0.75;0.70;;;;;;;24.73;38.44;101190.78;7388500;19;20018;-59
2024/04/21 01:01:25;;;;;;;0.47;0.47;;;;;;;24.03;38.87;101192.06;7391175;19;20019;-59
2024/04/21 01:03:52;;;;;;;0.80;0.80;;;;;;;23.66;39.04;101192.00;7390909;19;20011;-59
2024/04/21 01:06:19;;;;;;;1.25;1.23;;;;;;;23.68;39.68;101194.28;7389109;19;20348;-59
2024/04/21 01:08:45;;;;;;;7.53;1.65;;;;;;;23.79;39.22;101189.25;7391120;19;20011;-59
2024/04/21 01:11:15;;;;;;;2.38;0.75;;;;;;;23.78;39.30;101190.53;7394554;19;20458;-59
2024/04/21 01:13:41;;;;;;;8.90;1.63;;;;;;;23.51;39.29;101191.63;7392913;19;20011;-58
2024/04/21 01:16:08;;;;;;;1.35;1.25;;;;;;;23.66;39.76;101194.84;7392877;19;20014;-59
2024/04/21 01:18:34;;;;;;;18.40;1.80;;;;;;;23.84;39.55;101196.94;7397259;19;20018;-59
2024/04/21 01:21:00;;;;;;;0.47;0.47;;;;;;;23.83;39.18;101206.78;7391686;19;20324;-59
2024/04/21 01:23:26;;;;;;;1.98;1.00;;;;;;;23.95;39.16;101196.78;7395442;19;20018;-59
2024/04/21 01:25:52;;;;;;;8.02;1.25;;;;;;;23.78;39.45;101187.69;7396568;19;20021;-58
2024/04/21 01:28:19;;;;;;;11.18;1.45;;;;;;;22.33;40.80;101204.44;7391758;19;20039;-58
2024/04/21 01:30:45;;;;;;;0.60;0.60;;;;;;;22.00;41.43;101213.16;7391218;19;20007;-59
2024/04/21 01:33:11;;;;;;;1.50;0.80;;;;;;;21.86;41.88;101214.22;7396555;19;20023;-58
2024/04/21 01:35:37;;;;;;;0.60;0.60;;;;;;;21.86;42.21;101200.81;7391878;19;20002;-58
2024/04/21 01:38:03;;;;;;;5.15;0.95;;;;;;;21.88;42.12;101203.91;7391635;19;20014;-59
2024/04/21 01:40:29;;;;;;;1.45;1.35;;;;;;;21.94;41.84;101195.34;7391637;19;20011;-59
2024/04/21 01:42:55;;;;;;;0.70;0.68;;;;;;;21.81;42.19;101198.72;7395175;19;20046;-59
2024/04/21 01:45:22;;;;;;;3.65;1.10;;;;;;;21.87;42.05;101196.66;7391275;19;20025;-59
2024/04/21 01:47:48;;;;;;;0.77;0.77;;;;;;;22.11;41.83;101175.44;7394460;19;20014;-59
2024/04/21 01:50:14;;;;;;;0.30;0.30;;;;;;;22.08;41.45;101180.09;7390828;19;20016;-58
2024/04/21 01:52:41;;;;;;;1.85;1.27;;;;;;;21.94;41.57;101183.25;7394405;19;20014;-59
2024/04/21 01:55:07;;;;;;;1.40;1.05;;;;;;;22.01;42.01;101172.13;7390661;19;20026;-59
2024/04/21 02:00:41;;;;;;;3.22;0.90;;;;;;;22.27;42.15;101174.53;7390904;19;20465;-60
2024/04/21 02:03:07;;;;;;;1.20;0.93;;;;;;;21.70;42.72;101193.09;7392316;19;20027;-60
2024/04/21 02:05:33;;;;;;;1.75;0.77;;;;;;;22.77;41.78;101202.63;7389617;19;20019;-60
2024/04/21 02:07:59;;;;;;;0.65;0.65;;;;;;;23.57;40.46;101206.56;7389124;19;20019;-60
2024/04/21 02:10:25;;;;;;;0.88;0.88;;;;;;;23.77;39.94;101208.94;7388624;19;20018;-60
2024/04/21 02:12:51;;;;;;;4.18;1.13;;;;;;;23.40;39.96;101214.50;7390588;19;20345;-60
2024/04/21 02:15:17;;;;;;;13.90;2.33;;;;;;;23.78;39.55;101207.59;7394852;19;20018;-60
2024/04/21 02:17:44;;;;;;;0.70;0.70;;;;;;;23.67;39.69;101210.59;7394367;19;20340;-60
2024/04/21 02:20:10;;;;;;;1.15;0.93;;;;;;;23.76;39.43;101210.22;7390857;19;20467;-60
2024/04/21 02:22:36;;;;;;;1.60;1.23;;;;;;;23.83;39.75;101212.47;7390489;19;20010;-59
2024/04/21 02:25:02;;;;;;;0.75;0.75;;;;;;;23.93;39.49;101210.78;7391879;19;20063;-59
2024/04/21 02:27:28;;;;;;;2.47;1.70;;;;;;;23.87;39.07;101215.78;7393766;19;20015;-59
2024/04/21 02:29:55;;;;;;;1.63;0.68;;;;;;;23.95;38.83;101208.16;7390131;19;20011;-59
2024/04/21 02:32:21;;;;;;;0.40;0.40;;;;;;;24.08;38.98;101214.00;7389293;19;20415;-59
2024/04/21 02:34:47;;;;;;;0.60;0.60;;;;;;;24.03;39.03;101211.97;7390387;19;20022;-59
2024/04/21 02:37:13;;;;;;;4.03;0.70;;;;;;;23.90;39.02;101217.56;7388333;19;20011;-59
2024/04/21 02:39:39;;;;;;;2.05;0.95;;;;;;;23.80;39.14;101210.69;7392913;19;20015;-59
2024/04/21 02:42:05;;;;;;;1.42;1.33;;;;;;;24.26;38.53;101214.53;7390562;19;20007;-60
2024/04/21 02:44:31;;;;;;;0.70;0.70;;;;;;;23.98;38.31;101215.66;7389318;19;20014;-60
2024/04/21 02:46:57;;;;;;;0.52;0.52;;;;;;;24.01;38.51;101213.81;7391157;19;20478;-59
2024/04/21 02:49:23;;;;;;;0.40;0.40;;;;;;;23.52;39.05;101206.63;7390381;19;20458;-59
2024/04/21 02:51:50;;;;;;;1.00;1.00;;;;;;;23.80;38.77;101210.69;7387949;19;20017;-59
2024/04/21 02:54:16;;;;;;;1.05;0.70;;;;;;;23.94;38.75;101205.88;7389681;19;20085;-59
2024/04/21 02:56:42;;;;;;;0.65;0.65;;;;;;;23.77;38.62;101214.63;7390055;19;20036;-59
2024/04/21 02:59:08;;;;;;;0.75;0.50;;;;;;;23.92;38.29;101214.19;7389100;19;20019;-59
2024/04/21 03:01:34;;;;;;;1.08;1.08;;;;;;;23.65;38.76;101215.28;7391565;19;20050;-60
2024/04/21 03:04:00;;;;;;;0.55;0.55;;;;;;;23.77;38.72;101214.63;7388509;19;20014;-60
2024/04/21 03:06:26;;;;;;;1.23;1.02;;;;;;;24.43;37.81;101212.25;7389926;19;20022;-59
2024/04/21 03:08:52;;;;;;;0.60;0.60;;;;;;;23.99;38.27;101219.28;7389425;19;20038;-59
2024/04/21 03:11:18;;;;;;;0.60;0.60;;;;;;;23.92;38.21;101217.81;7387725;19;20024;-59
2024/04/21 03:13:46;;;;;;;0.47;0.47;;;;;;;23.92;37.83;101217.81;7391359;19;20442;-59
2024/04/21 03:16:12;;;;;;;0.50;0.50;;;;;;;23.75;38.36;101211.53;7397201;19;20478;-59
2024/04/21 03:18:38;;;;;;;0.60;0.60;;;;;;;23.40;38.75;101214.50;7396963;19;20078;-59
2024/04/21 03:21:04;;;;;;;0.80;0.68;;;;;;;23.53;38.52;101228.84;7395713;19;20063;-60
2024/04/21 03:23:30;;;;;;;0.90;0.85;;;;;;;23.65;37.99;101221.72;7395681;19;20014;-60
2024/04/21 03:25:57;;;;;;;1.50;1.20;;;;;;;23.91;37.92;101219.09;7400146;19;20031;-60
2024/04/21 03:28:23;;;;;;;0.50;0.50;;;;;;;23.71;37.83;101221.69;7396332;19;20017;-59
2024/04/21 03:30:59;;;;;;;1.08;0.70;;;;;;;23.27;38.56;101220.03;7394810;19;20010;-59
2024/04/21 03:33:26;;;;;;;1.58;0.95;;;;;;;23.44;37.96;101237.72;7395568;19;20007;-59
2024/04/21 03:36:03;;;;;;;1.95;0.93;;;;;;;23.58;37.70;101224.41;7395638;19;20035;-59
2024/04/21 03:38:33;;;;;;;0.65;0.57;;;;;;;23.11;37.77;101235.94;7395719;19;20031;-59
2024/04/21 03:40:59;;;;;;;0.60;0.60;;;;;;;23.24;37.76;101229.59;7395531;19;20006;-59
2024/04/21 03:43:26;;;;;;;0.32;0.32;;;;;;;23.25;36.92;101231.94;7395614;19;20018;-59
2024/04/21 03:45:52;;;;;;;0.60;0.60;;;;;;;23.34;37.07;101233.69;7395960;19;20066;-59
2024/04/21 03:48:19;;;;;;;1.40;0.77;;;;;;;23.43;36.92;101227.66;7400149;19;20003;-59
2024/04/21 03:50:45;;;;;;;1.90;1.80;;;;;;;23.29;36.43;101225.94;7394825;19;20028;-59
2024/04/21 03:53:18;;;;;;;0.60;0.60;;;;;;;23.33;36.74;101226.47;7395230;19;20011;-59
2024/04/21 03:55:44;;;;;;;0.73;0.73;;;;;;;23.23;36.50;101233.78;7394010;19;20026;-59
2024/04/21 03:58:11;;;;;;;0.68;0.50;;;;;;;23.15;36.50;101227.13;7394803;19;20011;-59
2024/04/21 04:00:38;;;;;;;0.95;0.65;;;;;;;23.04;36.18;101238.59;7393933;19;20017;-59
2024/04/21 04:03:04;;;;;;;0.50;0.50;;;;;;;23.09;36.31;101237.75;7394680;19;20018;-59
2024/04/21 04:05:30;;;;;;;0.50;0.50;;;;;;;22.85;36.17;101232.78;7395248;19;20014;-59
2024/04/21 04:07:56;;;;;;;1.42;0.50;;;;;;;22.84;36.37;101236.16;7394297;19;20014;-59
2024/04/21 04:10:22;;;;;;;2.90;1.70;;;;;;;22.79;36.16;101239.81;7395501;19;20028;-59
2024/04/21 04:12:48;;;;;;;0.40;0.40;;;;;;;22.79;36.23;101240.56;7394963;19;20079;-59
2024/04/21 04:15:14;;;;;;;0.50;0.50;;;;;;;22.83;36.16;101245.97;7395594;19;20070;-59
2024/04/21 04:17:41;;;;;;;2.92;0.98;;;;;;;22.69;36.17;101244.28;7398048;19;20097;-59
2024/04/21 04:20:09;;;;;;;0.35;0.35;;;;;;;22.68;36.05;101239.88;7394768;19;20015;-59
2024/04/21 04:22:36;;;;;;;0.60;0.60;;;;;;;22.66;35.96;101239.63;7396372;19;20062;-59
2024/04/21 04:25:03;;;;;;;0.50;0.50;;;;;;;22.52;36.46;101233.00;7396855;19;20032;-59
2024/04/21 04:27:29;;;;;;;1.33;1.08;;;;;;;22.72;36.25;101237.53;7393133;19;20018;-59
2024/04/21 04:29:55;;;;;;;1.85;0.40;;;;;;;22.99;35.68;101242.25;7394472;19;20014;-59
2024/04/21 04:32:21;;;;;;;1.17;0.93;;;;;;;22.57;36.25;101241.47;7394203;19;20376;-59
2024/04/21 04:34:51;;;;;;;1.02;1.02;;;;;;;22.55;36.29;101244.06;7395413;19;20018;-59
2024/04/21 04:37:18;;;;;;;0.90;0.90;;;;;;;22.52;36.06;101239.44;7393978;19;20018;-59
2024/04/21 04:39:44;;;;;;;1.85;1.13;;;;;;;22.45;36.08;101242.06;7394577;19;20018;-59
2024/04/21 04:42:11;;;;;;;2.70;1.13;;;;;;;22.40;36.27;101237.19;7391719;19;20006;-59
2024/04/21 04:44:37;;;;;;;1.85;0.82;;;;;;;22.56;36.21;101244.84;7393821;19;20739;-59
2024/04/21 04:47:03;;;;;;;2.25;1.30;;;;;;;22.65;35.98;101246.63;7395875;19;20060;-59
2024/04/21 04:49:29;;;;;;;0.82;0.82;;;;;;;22.47;36.53;101245.16;7393891;19;20474;-59
2024/04/21 04:51:55;;;;;;;1.23;1.13;;;;;;;22.65;36.14;101246.63;7391239;19;20010;-59
2024/04/21 04:54:21;;;;;;;0.50;0.50;;;;;;;22.72;36.30;101252.50;7393768;19;20080;-59
2024/04/21 04:56:47;;;;;;;1.35;1.25;;;;;;;22.72;36.17;101252.50;7393569;19;20022;-59
2024/04/21 04:59:15;;;;;;;0.60;0.60;;;;;;;22.77;36.08;101253.75;7395948;19;20115;-58
2024/04/21 05:01:41;;;;;;;1.65;1.42;;;;;;;22.73;36.28;101251.22;7392783;19;20010;-58
2024/04/21 05:04:07;;;;;;;0.60;0.60;;;;;;;22.71;36.55;101258.72;7392488;19;20014;-58
2024/04/21 05:06:33;;;;;;;0.38;0.38;;;;;;;22.67;36.28;101253.31;7391938;19;20018;-58
2024/04/21 05:09:00;;;;;;;1.77;1.10;;;;;;;22.67;36.79;101256.16;7391794;19;20467;-58
2024/04/21 05:11:26;;;;;;;0.63;0.63;;;;;;;22.88;36.61;101254.47;7391068;19;20102;-59
2024/04/21 05:13:52;;;;;;;2.92;0.63;;;;;;;22.58;36.76;101259.28;7391868;19;20006;-59
2024/04/21 05:16:18;;;;;;;5.90;1.27;;;;;;;22.40;36.97;101269.19;7392273;19;20485;-59
2024/04/21 05:18:44;;;;;;;0.80;0.80;;;;;;;22.26;36.75;101273.09;7392151;19;20023;-59
2024/04/21 05:21:10;;;;;;;2.65;1.63;;;;;;;22.37;36.57;101267.38;7391805;19;20010;-59
2024/04/21 05:23:37;;;;;;;0.65;0.65;;;;;;;22.62;36.79;101265.47;7394049;19;20010;-59
2024/04/21 05:26:03;;;;;;;6.80;1.40;;;;;;;22.95;35.87;101270.16;7396684;19;20074;-59
2024/04/21 05:28:29;;;;;;;1.45;1.20;;;;;;;22.24;36.62;101287.06;7392238;19;20021;-59
2024/04/21 05:30:55;;;;;;;0.40;0.40;;;;;;;22.77;36.31;101282.16;7391566;19;20018;-59
2024/04/21 05:33:22;;;;;;;0.50;0.50;;;;;;;22.33;37.05;101288.81;7392277;19;20007;-59
2024/04/21 05:35:48;;;;;;;1.20;1.10;;;;;;;22.40;36.84;101289.06;7393075;19;20014;-59
2024/04/21 05:38:14;;;;;;;0.93;0.93;;;;;;;22.24;36.65;101289.88;7391837;19;20030;-59
2024/04/21 05:40:40;;;;;;;1.17;0.90;;;;;;;22.24;36.85;101298.41;7392071;19;20014;-59
2024/04/21 05:43:06;;;;;;;14.70;1.83;;;;;;;22.67;36.51;101295.16;7391672;19;20024;-59
2024/04/21 05:45:32;;;;;;;4.85;1.23;;;;;;;22.73;36.39;101293.03;7390718;19;20007;-59
2024/04/21 05:47:58;;;;;;;0.52;0.52;;;;;;;22.77;36.25;101299.22;7392042;19;20427;-59
2024/04/21 05:50:24;;;;;;;1.95;1.17;;;;;;;22.69;36.43;101299.00;7391850;19;20024;-59
2024/04/21 05:52:51;;;;;;;1.10;0.90;;;;;;;22.46;36.89;101304.00;7391009;19;20010;-60
2024/04/21 05:55:17;;;;;;;0.73;0.73;;;;;;;22.57;36.75;101306.00;7392001;19;20025;-59
2024/04/21 05:57:44;;;;;;;9.10;2.47;;;;;;;22.35;36.82;101312.56;7393453;19;20030;-60
2024/04/21 06:00:10;;;;;;;0.95;0.88;;;;;;;22.73;36.38;101305.19;7391355;19;20010;-59
2024/04/21 06:02:36;;;;;;;4.80;1.08;;;;;;;22.72;36.57;101305.72;7391708;19;20066;-59
2024/04/21 06:05:03;;;;;;;0.55;0.50;;;;;;;22.77;36.46;101313.41;7391138;19;20018;-59
2024/04/21 06:07:30;;;;;;;0.90;0.90;;;;;;;22.64;36.29;101308.31;7391616;19;20344;-59
2024/04/21 06:09:57;;;;;;;2.47;1.08;;;;;;;22.63;36.72;101306.03;7393384;19;20332;-60
2024/04/21 06:12:23;;;;;;;1.55;0.73;;;;;;;22.47;36.54;101311.22;7391742;19;20063;-60
2024/04/21 06:14:49;;;;;;;1.40;1.30;;;;;;;22.36;36.35;101313.34;7389194;19;20052;-60
2024/04/21 06:17:15;;;;;;;0.77;0.77;;;;;;;22.32;36.63;101310.78;7392133;19;20029;-59
2024/04/21 06:19:41;;;;;;;2.92;2.22;;;;;;;22.31;36.81;101311.28;7391217;19;20010;-59
2024/04/21 06:22:09;;;;;;;1.45;1.35;;;;;;;22.44;37.08;101311.50;7393798;19;20007;-60
2024/04/21 06:24:35;;;;;;;1.00;0.90;;;;;;;22.48;36.66;101318.44;7393494;19;20020;-60
2024/04/21 06:27:02;;;;;;;2.13;0.88;;;;;;;22.61;36.29;101315.81;7394667;19;20015;-59
2024/04/21 06:29:28;;;;;;;7.85;1.58;;;;;;;22.64;35.82;101316.84;7394868;19;20356;-60
2024/04/21 06:31:54;;;;;;;4.03;1.20;;;;;;;22.49;36.30;101330.56;7388521;19;20014;-59
2024/04/21 06:34:20;;;;;;;0.70;0.70;;;;;;;22.60;36.46;101322.03;7390339;19;20015;-60
2024/04/21 06:36:46;;;;;;;2.65;1.05;;;;;;;22.54;36.23;101322.00;7389572;19;20018;-60
2024/04/21 06:39:13;;;;;;;2.25;1.50;;;;;;;22.65;36.51;101321.25;7391002;19;20007;-60
2024/04/21 06:41:39;;;;;;;1.75;1.23;;;;;;;22.61;36.41;101321.50;7390088;19;20045;-59
2024/04/21 06:44:05;;;;;;;2.08;1.13;;;;;;;22.80;36.16;101326.56;7391843;19;20042;-60
2024/04/21 06:46:31;;;;;;;1.23;1.17;;;;;;;22.78;35.93;101334.84;7391303;19;20010;-59
2024/04/21 06:48:57;;;;;;;1.67;1.17;;;;;;;22.79;36.11;101325.81;7392289;19;20002;-60
2024/04/21 06:51:23;;;;;;;4.05;1.15;;;;;;;22.74;35.90;101334.38;7394166;19;20003;-60
2024/04/21 06:53:49;;;;;;;2.38;1.42;;;;;;;22.73;35.70;101332.81;7396715;19;20011;-59
2024/04/21 06:56:15;;;;;;;1.30;0.77;;;;;;;22.79;36.14;101339.22;7398958;19;20018;-60
2024/04/21 06:58:41;;;;;;;5.32;1.58;;;;;;;22.69;36.26;101332.31;7381388;19;20539;-95
2024/04/21 07:01:08;;;;;;;1.85;1.52;;;;;;;22.84;36.03;101327.06;7397529;19;20022;-96
2024/04/21 07:03:34;;;;;;;2.05;0.90;;;;;;;22.66;36.53;101336.19;7399685;19;20019;-94
2024/04/21 07:06:00;;;;;;;5.38;1.75;;;;;;;22.43;36.55;101349.72;7395257;19;20007;-96
2024/04/21 07:08:26;;;;;;;3.50;1.92;;;;;;;22.34;37.25;101344.31;7394720;19;20022;-94
2024/04/21 07:10:52;;;;;;;3.63;2.25;;;;;;;22.56;37.04;101347.06;7399097;19;20047;-96
2024/04/21 07:13:19;;;;;;;4.25;1.65;;;;;;;23.04;36.88;101352.25;7398509;19;20056;-96
2024/04/21 07:15:45;;;;;;;4.20;2.00;;;;;;;23.55;36.34;101345.69;7397929;19;20026;-95
2024/04/21 07:18:11;;;;;;;9.25;2.28;;;;;;;23.37;36.69;101352.03;7399190;19;20496;-96
2024/04/21 07:20:37;;;;;;;4.43;1.45;;;;;;;23.28;36.63;101352.34;7396343;19;20015;-96
2024/04/21 07:23:03;;;;;;;1.88;1.60;;;;;;;22.95;36.99;101356.19;7395900;19;20015;-96
2024/04/21 07:25:30;;;;;;;1.73;0.93;;;;;;;23.02;37.34;101354.88;7395703;19;20371;-96
2024/04/21 07:27:56;;;;;;;1.40;1.30;;;;;;;23.06;37.18;101361.03;7396965;19;20101;-96
2024/04/21 07:30:22;;;;;;;1.10;1.10;;;;;;;23.23;37.34;101362.47;7396415;19;20014;-96
2024/04/21 07:32:48;;;;;;;0.70;0.70;;;;;;;23.31;37.30;101356.97;7397480;19;20014;-95
2024/04/21 07:35:14;;;;;;;12.55;1.23;;;;;;;23.29;37.20;101356.72;7398088;19;20173;-95
2024/04/21 07:37:40;;;;;;;5.10;1.58;;;;;;;23.62;36.58;101361.41;7397700;19;20047;-96
2024/04/21 07:40:07;;;;;;;0.77;0.77;;;;;;;23.55;36.26;101362.75;7395251;19;20456;-96
2024/04/21 07:42:33;;;;;;;8.88;0.98;;;;;;;23.57;36.12;101360.16;7398760;19;20011;-95
2024/04/21 07:44:59;;;;;;;0.68;0.45;;;;;;;23.77;35.96;101359.72;7396941;19;20022;-96
2024/04/21 07:47:25;;;;;;;0.63;0.63;;;;;;;24.42;35.34;101362.41;7396399;19;20027;-96
2024/04/21 07:49:51;;;;;;;3.80;1.20;;;;;;;24.61;34.71;101359.59;7396773;19;20022;-96
2024/04/21 07:52:17;;;;;;;0.70;0.70;;;;;;;24.69;34.52;101371.91;7397922;19;20078;-96
2024/04/21 07:54:43;;;;;;;1.38;0.95;;;;;;;24.48;34.54;101373.72;7399036;19;20026;-96
2024/04/21 07:57:10;;;;;;;0.50;0.45;;;;;;;24.61;34.59;101366.06;7396112;19;20051;-96
2024/04/21 07:59:36;;;;;;;10.30;1.00;;;;;;;24.50;34.67;101359.72;7389777;19;20087;-79
2024/04/21 08:02:02;;;;;;;1.73;0.68;;;;;;;24.50;34.56;101362.56;7388952;19;20476;-79
2024/04/21 08:04:28;;;;;;;0.25;0.25;;;;;;;24.47;34.58;101360.81;7392882;19;20038;-80
2024/04/21 08:06:56;;;;;;;0.30;0.30;;;;;;;24.53;34.82;101361.50;7388849;19;20469;-80
2024/04/21 08:09:22;;;;;;;7.10;1.33;;;;;;;24.59;34.28;101367.91;7389172;19;20022;-80
2024/04/21 08:11:48;;;;;;;8.02;0.68;;;;;;;24.58;34.14;101369.22;7390535;19;20027;-80
2024/04/21 08:14:14;;;;;;;0.73;0.73;;;;;;;24.57;34.46;101370.53;7390044;19;20085;-80
2024/04/21 08:16:40;;;;;;;0.40;0.40;;;;;;;24.65;34.44;101371.44;7391954;19;20348;-80
2024/04/21 08:19:07;;;;;;;0.85;0.63;;;;;;;24.86;33.88;101363.19;7392393;19;20022;-79
2024/04/21 08:21:33;;;;;;;5.93;1.35;;;;;;;25.12;33.91;101378.34;7390469;19;20405;-80
2024/04/21 08:23:59;;;;;;;0.63;0.28;;;;;;;25.04;33.49;101368.88;7391269;19;20457;-80
2024/04/21 08:26:25;;;;;;;1.15;0.73;;;;;;;25.17;33.39;101368.94;7391501;19;20045;-80
2024/04/21 08:28:51;;;;;;;11.85;1.88;;;;;;;25.26;33.16;101359.97;7392893;19;20019;-80
2024/04/21 08:31:17;;;;;;;1.10;0.73;;;;;;;25.41;32.55;101363.13;7388626;19;20499;-80
2024/04/21 08:33:43;;;;;;;1.90;0.90;;;;;;;25.24;32.78;101354.06;7391187;19;20371;-80
2024/04/21 08:36:09;;;;;;;5.03;0.98;;;;;;;25.43;33.04;101365.44;7389461;19;20033;-80
2024/04/21 08:38:36;;;;;;;0.30;0.30;;;;;;;25.62;32.97;101356.84;7390209;19;20022;-80
2024/04/21 08:41:08;;;;;;;4.25;0.57;;;;;;;25.89;32.73;101361.28;7388887;19;20396;-80
2024/04/21 08:43:35;;;;;;;1.58;0.68;;;;;;;26.16;32.33;101351.47;7390148;19;20022;-80
2024/04/21 08:46:01;;;;;;;0.30;0.30;;;;;;;26.10;32.03;101353.66;7390301;19;20018;-80
2024/04/21 08:48:29;;;;;;;1.25;0.88;;;;;;;26.09;32.15;101360.69;7394561;19;20007;-78
2024/04/21 08:50:55;;;;;;;1.42;0.80;;;;;;;26.18;31.48;101360.25;7390352;19;20041;-77
2024/04/21 08:53:22;;;;;;;0.13;0.13;;;;;;;25.85;31.68;101360.84;7389464;19;20018;-80
2024/04/21 08:55:49;;;;;;;3.10;0.47;;;;;;;25.30;31.62;101368.22;7393243;19;20098;-78
2024/04/21 08:58:16;;;;;;;0.43;0.43;;;;;;;25.46;31.71;101365.16;7388288;19;20022;-78
2024/04/21 09:00:42;;;;;;;1.67;0.52;;;;;;;25.27;31.45;101364.38;7391974;19;20025;-80
2024/04/21 09:03:09;;;;;;;0.47;0.43;;;;;;;25.19;32.07;101357.75;7390085;19;20027;-77
2024/04/21 09:05:35;;;;;;;0.20;0.10;;;;;;;25.61;31.79;101356.06;7388756;19;20015;-80
2024/04/21 09:08:02;;;;;;;0.10;0.10;;;;;;;25.85;31.82;101358.00;7389968;19;20018;-78
2024/04/21 09:10:28;;;;;;;1.17;0.93;;;;;;;26.09;32.01;101352.91;7388306;19;20078;-80
2024/04/21 09:12:54;;;;;;;0.47;0.45;;;;;;;25.77;31.16;101365.66;7386883;19;20509;-80
2024/04/21 09:15:20;;;;;;;0.82;0.70;;;;;;;25.42;31.02;101363.91;7389644;19;20035;-80
2024/04/21 09:17:47;;;;;;;0.20;0.20;;;;;;;25.14;31.20;101352.94;7391950;19;20504;-80
2024/04/21 09:20:13;;;;;;;1.17;0.50;;;;;;;25.29;31.41;101361.75;7387934;19;20010;-80
2024/04/21 09:22:39;;;;;;;2.63;0.90;;;;;;;25.32;30.90;101371.28;7389352;19;20018;-80
2024/04/21 09:25:06;;;;;;;0.50;0.50;;;;;;;25.16;30.06;101358.84;7389504;19;20034;-80
2024/04/21 09:27:33;;;;;;;0.30;0.30;;;;;;;25.04;29.95;101357.47;7389411;19;20401;-80
2024/04/21 09:30:01;;;;;;;0.55;0.55;;;;;;;25.52;29.75;101374.38;7386406;19;20057;-80
2024/04/21 09:32:33;;;;;;;0.20;0.20;;;;;;;25.61;29.44;101376.06;7236520;19;20510;-81
2024/04/21 09:35:01;;;;;;;0.50;0.50;;;;;;;25.87;29.10;101369.63;7388339;19;20499;-80
2024/04/21 09:37:28;;;;;;;4.95;0.77;;;;;;;25.65;29.01;101365.09;7387309;19;20029;-80
2024/04/21 09:39:55;;;;;;;3.33;0.50;;;;;;;25.79;28.98;101358.09;7386548;19;20022;-80
2024/04/21 09:42:25;;;;;;;0.20;0.20;;;;;;;26.13;29.23;101367.63;7388198;19;20366;-80
2024/04/21 09:44:53;;;;;;;0.87;0.53;;;;;;;26.24;28.65;101369.47;7389799;19;20021;-80
2024/04/21 09:47:19;;;;;;;0.15;0.15;;;;;;;26.00;28.10;101367.56;7390198;19;20323;-80
2024/04/21 09:49:46;;;;;;;8.18;0.85;;;;;;;25.60;28.58;101380.19;7386330;19;20010;-80
2024/04/21 09:52:13;;;;;;;6.63;0.95;;;;;;;25.89;28.37;101372.72;7385920;19;20035;-77
2024/04/21 09:54:39;;;;;;;0.75;0.55;;;;;;;25.90;28.08;101374.25;7389483;19;20082;-80
2024/04/21 09:57:15;;;;;;;0.20;0.20;;;;;;;25.95;28.44;101374.16;7389494;19;20421;-80
2024/04/21 09:59:46;;;;;;;0.77;0.32;;;;;;;26.12;28.78;101379.56;7388436;19;20662;-80
2024/04/21 10:02:22;;;;;;;0.30;0.20;;;;;;;26.26;28.41;101373.34;7389172;19;20099;-80
2024/04/21 10:05:09;;;;;;;0.98;0.43;;;;;;;26.05;27.92;101374.50;7387841;19;20015;-80
2024/04/21 10:07:37;;;;;;;1.35;0.63;;;;;;;25.98;28.03;101373.06;7392721;19;20743;-80
2024/04/21 10:10:09;;;;;;;4.03;0.90;;;;;;;26.08;27.70;101362.78;7388023;19;20026;-80
2024/04/21 10:12:37;;;;;;;1.23;0.30;;;;;;;26.44;27.21;101377.41;7386851;19;20018;-80
2024/04/21 10:15:07;;;;;;;0.20;0.20;;;;;;;26.43;26.68;101373.00;7387994;19;20006;-80
2024/04/21 10:17:33;;;;;;;0.28;0.28;;;;;;;26.68;27.40;101379.25;7387678;19;20027;-80
2024/04/21 10:20:01;;;;;;;0.20;0.20;;;;;;;26.69;27.49;101370.09;7386454;19;20070;-80
2024/04/21 10:22:27;;;;;;;1.10;1.10;;;;;;;27.20;27.02;101366.94;7389780;19;20109;-79
2024/04/21 10:24:55;;;;;;;0.82;0.82;;;;;;;27.15;27.27;101370.69;7393299;19;20551;-80
2024/04/21 10:27:22;;;;;;;3.20;0.73;;;;;;;26.66;27.33;101361.88;7394565;19;20014;-80
2024/04/21 10:29:49;;;;;;;2.08;0.30;;;;;;;26.63;27.24;101360.88;7391370;19;20032;-80
2024/04/21 10:32:24;;;;;;;7.22;0.45;;;;;;;26.72;27.89;101357.59;7392843;19;20015;-80
2024/04/21 10:34:50;;;;;;;2.35;0.40;;;;;;;27.16;28.72;101360.78;7395804;19;20768;-80
2024/04/21 10:37:26;;;;;;;0.43;0.43;;;;;;;27.15;27.15;101365.72;7395898;19;20049;-77
2024/04/21 10:40:05;;;;;;;9.25;0.63;;;;;;;27.05;27.58;101368.28;7392652;19;20490;-77
2024/04/21 10:42:33;;;;;;;0.20;0.20;;;;;;;27.07;27.45;101367.75;7391888;19;20453;-80
2024/04/21 10:45:02;;;;;;;1.23;0.77;;;;;;;27.19;27.42;101365.38;7393452;19;20003;-81
2024/04/21 10:47:29;;;;;;;0.32;0.28;;;;;;;27.18;28.68;101361.00;7395987;19;20007;-81
2024/04/21 10:49:56;;;;;;;0.20;0.10;;;;;;;27.60;28.05;101359.72;7392380;19;20402;-80
2024/04/21 10:52:22;;;;;;;0.77;0.47;;;;;;;27.19;28.22;101365.38;7392925;19;20026;-80
2024/04/21 10:54:48;;;;;;;2.00;0.28;;;;;;;26.91;27.33;101357.44;7394042;19;20033;-81
2024/04/21 10:57:14;;;;;;;0.55;0.35;;;;;;;25.99;28.47;101363.16;7393883;19;20082;-81
2024/04/21 10:59:41;;;;;;;2.28;1.17;;;;;;;25.74;28.61;101361.81;7391091;19;20014;-80
2024/04/21 11:02:07;;;;;;;0.63;0.32;;;;;;;25.49;28.77;101380.41;7396702;19;20022;-80
2024/04/21 11:04:35;;;;;;;2.55;0.30;;;;;;;25.52;29.07;101374.38;7394056;19;20018;-80
2024/04/21 11:07:02;;;;;;;3.40;0.60;;;;;;;25.49;29.02;101375.44;7394694;19;20024;-80
2024/04/21 11:09:28;;;;;;;1.20;0.32;;;;;;;25.55;28.59;101373.28;7391712;19;20010;-80
2024/04/21 11:11:55;;;;;;;0.20;0.20;;;;;;;25.54;28.39;101368.13;7393689;19;20018;-80
2024/04/21 11:14:21;;;;;;;0.32;0.32;;;;;;;26.06;29.12;101376.03;7392089;19;20041;-80
2024/04/21 11:16:53;;;;;;;5.10;0.22;;;;;;;26.09;28.46;101374.97;7389403;19;20049;-83
2024/04/21 11:19:21;;;;;;;6.13;0.52;;;;;;;26.02;27.38;101367.78;7390657;19;20041;-76
2024/04/21 11:21:48;;;;;;;0.20;0.10;;;;;;;26.37;27.33;101380.13;7389953;19;20014;-76
2024/04/21 11:24:15;;;;;;;3.92;0.20;;;;;;;26.67;27.58;101372.75;7388355;19;20350;-76